createdAt,value
2022-12-28T00:03:49.491Z,10.93
2022-12-28T00:08:55.828Z,10.73
2022-12-28T00:13:59.946Z,10.50
2022-12-28T00:19:04.798Z,10.32
2022-12-28T00:24:07.406Z,9.88
2022-12-28T00:29:09.332Z,9.38
2022-12-28T00:34:11.243Z,10.17
2022-12-28T00:39:12.903Z,8.93
2022-12-28T00:44:14.650Z,11.35
2022-12-28T00:49:16.444Z,10.47
2022-12-28T00:54:18.074Z,9.75
2022-12-28T00:59:19.921Z,9.50
2022-12-28T01:04:21.657Z,9.73
2022-12-28T01:09:23.344Z,9.27
2022-12-28T01:14:25.166Z,10.70
2022-12-28T01:19:27.703Z,9.10
2022-12-28T01:24:29.514Z,7.88
2022-12-28T01:29:35.141Z,8.85
2022-12-28T01:34:36.896Z,8.37
2022-12-28T01:39:38.655Z,9.13
2022-12-28T01:44:44.130Z,8.30
2022-12-28T01:50:03.362Z,8.07
2022-12-28T01:55:09.859Z,7.93
2022-12-28T02:00:14.547Z,8.02
2022-12-28T02:05:20.303Z,7.70
2022-12-28T02:15:45.039Z,7.70
2022-12-28T02:21:09.519Z,8.65
2022-12-28T02:26:20.260Z,8.05
2022-12-28T02:31:33.859Z,8.30
2022-12-28T02:36:41.658Z,8.10
2022-12-28T02:41:47.081Z,8.35
2022-12-28T02:47:09.350Z,7.70
2022-12-28T02:52:53.482Z,9.23
2022-12-28T02:58:26.590Z,7.80
2022-12-28T03:03:40.570Z,8.87
2022-12-28T03:08:54.212Z,9.82
2022-12-28T03:14:03.076Z,8.88
2022-12-28T03:19:27.052Z,8.75
2022-12-28T03:24:52.895Z,8.40
2022-12-28T03:30:25.178Z,8.93
2022-12-28T03:35:38.925Z,9.40
2022-12-28T03:40:49.446Z,8.18
2022-12-28T03:45:56.962Z,8.07
2022-12-28T03:50:59.860Z,8.52
2022-12-28T03:56:10.560Z,8.88
2022-12-28T04:01:13.559Z,7.72
2022-12-28T04:06:18.287Z,7.75
2022-12-28T04:11:19.984Z,8.40
2022-12-28T04:16:27.476Z,8.27
2022-12-28T04:21:29.277Z,8.87
2022-12-28T04:26:31.505Z,7.93
2022-12-28T04:31:33.450Z,7.78
2022-12-28T04:36:44.821Z,8.40
2022-12-28T04:41:49.562Z,7.55
2022-12-28T04:46:51.442Z,6.77
2022-12-28T04:51:53.151Z,8.27
2022-12-28T04:56:54.825Z,7.75
2022-12-28T05:01:56.605Z,7.55
2022-12-28T05:06:58.371Z,7.33
2022-12-28T05:12:00.094Z,7.67
2022-12-28T05:17:01.872Z,7.67
2022-12-28T05:22:03.915Z,8.70
2022-12-28T05:27:05.660Z,6.77
2022-12-28T05:32:07.479Z,7.55
2022-12-28T05:37:09.172Z,7.30
2022-12-28T05:42:10.945Z,6.67
2022-12-28T05:47:13.784Z,6.10
2022-12-28T05:52:15.486Z,6.53
2022-12-28T05:57:17.114Z,6.53
2022-12-28T06:02:24.415Z,6.88
2022-12-28T06:07:26.521Z,6.05
2022-12-28T06:12:28.174Z,6.78
2022-12-28T06:17:29.864Z,5.97
2022-12-28T06:22:31.616Z,6.25
2022-12-28T06:27:33.288Z,6.05
2022-12-28T06:32:34.934Z,5.65
2022-12-28T06:37:36.604Z,5.75
2022-12-28T06:42:38.230Z,5.47
2022-12-28T06:47:40.100Z,5.33
2022-12-28T06:52:42.294Z,5.03
2022-12-28T06:57:44.053Z,5.67
2022-12-28T07:02:45.896Z,5.43
2022-12-28T07:07:47.624Z,5.20
2022-12-28T07:12:49.256Z,5.40
2022-12-28T07:17:50.908Z,5.55
2022-12-28T07:22:54.621Z,4.97
2022-12-28T07:27:56.397Z,4.85
2022-12-28T07:32:58.076Z,4.53
2022-12-28T07:37:59.779Z,4.40
2022-12-28T07:43:01.449Z,4.55
2022-12-28T07:48:03.267Z,4.35
2022-12-28T07:53:05.080Z,4.33
2022-12-28T07:58:06.748Z,4.03
2022-12-28T08:03:08.489Z,4.47
2022-12-28T08:08:10.341Z,4.15
2022-12-28T08:13:12.016Z,4.57
2022-12-28T08:18:13.751Z,4.40
2022-12-28T08:23:15.595Z,4.40
2022-12-28T08:28:17.293Z,4.80
2022-12-28T08:33:19.015Z,4.30
2022-12-28T08:38:20.673Z,4.63
2022-12-28T08:43:22.434Z,4.07
2022-12-28T08:48:24.447Z,3.40
2022-12-28T08:53:26.271Z,3.50
2022-12-28T08:58:28.024Z,3.00
2022-12-28T09:03:30.112Z,2.88
2022-12-28T09:08:32.157Z,2.40
2022-12-28T09:13:34.852Z,2.33
2022-12-28T09:18:37.493Z,3.10
2022-12-28T09:23:40.266Z,3.15
2022-12-28T09:28:55.767Z,2.80
2022-12-28T09:39:24.805Z,2.15
2022-12-28T09:44:32.084Z,2.10
2022-12-28T09:49:58.795Z,2.28
2022-12-28T09:55:13.575Z,2.13
2022-12-28T10:00:43.093Z,2.05
2022-12-28T10:05:45.297Z,1.83
2022-12-28T10:10:49.211Z,1.77
2022-12-28T10:15:52.896Z,1.80
2022-12-28T10:20:55.937Z,2.33
2022-12-28T10:25:59.539Z,2.10
2022-12-28T10:31:12.190Z,1.70
2022-12-28T10:36:16.171Z,1.80
2022-12-28T10:41:20.387Z,1.60
2022-12-28T10:46:24.142Z,2.63
2022-12-28T10:51:29.559Z,2.20
2022-12-28T10:56:48.476Z,1.60
2022-12-28T11:01:50.538Z,1.40
2022-12-28T11:06:57.752Z,1.87
2022-12-28T11:12:23.947Z,1.30
2022-12-28T11:17:30.758Z,1.77
2022-12-28T11:22:33.790Z,1.60
2022-12-28T11:27:36.114Z,1.80
2022-12-28T11:32:43.489Z,1.40
2022-12-28T11:37:50.100Z,1.40
2022-12-28T11:42:56.210Z,1.17
2022-12-28T11:48:36.489Z,1.30
2022-12-28T11:53:45.058Z,1.50
2022-12-28T11:59:01.173Z,1.10
2022-12-28T12:04:05.685Z,1.30
2022-12-28T12:09:25.896Z,1.30
2022-12-28T12:14:42.952Z,1.52
2022-12-28T12:19:50.548Z,1.30
2022-12-28T12:24:58.791Z,1.30
2022-12-28T12:30:04.582Z,1.20
2022-12-28T12:35:07.898Z,1.90
2022-12-28T12:40:09.650Z,1.33
2022-12-28T12:45:40.918Z,1.30
2022-12-28T12:50:42.552Z,1.00
2022-12-28T12:56:07.603Z,1.02
2022-12-28T13:01:18.597Z,1.20
2022-12-28T13:06:24.364Z,1.00
2022-12-28T13:11:26.726Z,1.35
2022-12-28T13:16:31.123Z,1.10
2022-12-28T13:21:44.917Z,1.13
2022-12-28T13:26:46.603Z,1.05
2022-12-28T13:31:51.426Z,1.25
2022-12-28T13:36:58.227Z,1.00
2022-12-28T13:42:04.431Z,1.50
2022-12-28T13:47:18.082Z,1.55
2022-12-28T13:52:28.640Z,1.52
2022-12-28T13:57:55.774Z,1.88
2022-12-28T14:02:58.053Z,1.45
2022-12-28T14:08:00.047Z,1.15
2022-12-28T14:13:03.936Z,1.23
2022-12-28T14:18:06.286Z,1.27
2022-12-28T14:23:23.429Z,1.13
2022-12-28T14:28:42.472Z,1.13
2022-12-28T14:34:24.302Z,1.20
2022-12-28T14:39:35.734Z,1.10
2022-12-28T14:44:40.464Z,1.20
2022-12-28T14:49:44.101Z,1.30
2022-12-28T14:54:49.741Z,1.25
2022-12-28T15:00:01.121Z,2.80
2022-12-28T15:05:03.460Z,6.25
2022-12-28T15:10:05.728Z,2.33
2022-12-28T15:15:10.153Z,1.88
2022-12-28T15:20:11.959Z,1.67
2022-12-28T15:25:13.704Z,2.00
2022-12-28T15:30:21.640Z,6.28
2022-12-28T15:35:26.242Z,2.20
2022-12-28T15:40:28.803Z,2.60
2022-12-28T15:45:31.723Z,2.65
2022-12-28T15:55:35.042Z,2.03
2022-12-28T16:00:36.799Z,2.30
2022-12-28T16:05:38.522Z,1.90
2022-12-28T16:10:40.238Z,2.10
2022-12-28T16:15:41.888Z,2.30
2022-12-28T16:20:43.640Z,3.10
2022-12-28T16:25:51.366Z,3.70
2022-12-28T16:30:53.479Z,1.90
2022-12-28T16:35:59.528Z,2.75
2022-12-28T16:41:01.791Z,2.45
2022-12-28T16:46:08.494Z,4.10
2022-12-28T16:51:11.942Z,2.80
2022-12-28T16:56:13.778Z,2.47
2022-12-28T17:01:15.698Z,2.38
2022-12-28T17:06:18.080Z,2.50
2022-12-28T17:11:19.812Z,1.92
2022-12-28T17:16:21.593Z,1.95
2022-12-28T17:21:23.415Z,2.70
2022-12-28T17:26:25.869Z,6.43
2022-12-28T17:31:28.086Z,3.10
2022-12-28T17:36:29.804Z,3.13
2022-12-28T17:41:31.629Z,2.28
2022-12-28T17:46:37.737Z,3.03
2022-12-28T17:51:43.429Z,2.17
2022-12-28T17:56:45.111Z,3.50
2022-12-28T18:01:46.839Z,2.60
2022-12-28T18:06:48.646Z,3.20
2022-12-28T18:11:50.367Z,3.58
2022-12-28T18:16:52.246Z,3.17
2022-12-28T18:21:54.062Z,3.40
2022-12-28T18:26:55.825Z,1.63
2022-12-28T18:31:57.666Z,2.00
2022-12-28T18:36:59.322Z,2.08
2022-12-28T18:42:02.620Z,2.47
2022-12-28T18:47:04.509Z,2.65
2022-12-28T18:52:06.337Z,3.08
2022-12-28T18:57:08.313Z,2.47
2022-12-28T19:02:17.516Z,8.07
2022-12-28T19:07:21.220Z,3.17
2022-12-28T19:12:22.877Z,2.78
2022-12-28T19:17:24.624Z,2.80
2022-12-28T19:22:26.524Z,3.08
2022-12-28T19:27:28.224Z,2.90
2022-12-28T19:32:30.562Z,2.92
2022-12-28T19:37:32.199Z,2.60
2022-12-28T19:42:33.960Z,2.85
2022-12-28T19:47:35.718Z,2.72
2022-12-28T19:52:37.381Z,2.47
2022-12-28T19:57:39.676Z,2.60
2022-12-28T20:02:41.782Z,2.60
2022-12-28T20:07:43.655Z,2.30
2022-12-28T20:12:45.367Z,2.40
2022-12-28T20:17:47.461Z,2.25
2022-12-28T20:22:49.273Z,2.53
2022-12-28T20:27:50.968Z,2.63
2022-12-28T20:32:52.664Z,2.90
2022-12-28T20:37:54.345Z,2.47
2022-12-28T20:43:14.828Z,2.50
2022-12-28T20:48:17.323Z,2.33
2022-12-28T20:53:19.138Z,2.50
2022-12-28T20:58:20.977Z,4.43
2022-12-28T21:03:22.684Z,2.67
2022-12-28T21:08:30.386Z,2.80
2022-12-28T21:13:32.455Z,2.60
2022-12-28T21:18:35.578Z,3.00
2022-12-28T21:23:37.537Z,2.60
2022-12-28T21:28:39.499Z,2.87
2022-12-28T21:33:41.923Z,2.90
2022-12-28T21:38:44.914Z,3.80
2022-12-28T21:43:46.606Z,3.22
2022-12-28T21:48:48.366Z,2.80
2022-12-28T21:53:50.050Z,2.88
2022-12-28T21:58:52.275Z,3.08
2022-12-28T22:04:12.801Z,2.77
2022-12-28T22:09:33.298Z,2.63
2022-12-28T22:14:34.924Z,2.63
2022-12-28T22:19:36.828Z,2.60
2022-12-28T22:24:38.492Z,2.47
2022-12-28T22:29:40.259Z,4.15
2022-12-28T22:34:41.860Z,5.00
2022-12-28T22:39:43.492Z,4.30
2022-12-28T22:44:45.184Z,5.53
2022-12-28T22:49:46.893Z,3.78
2022-12-28T22:54:48.533Z,2.92
2022-12-28T22:59:50.465Z,5.10
2022-12-28T23:04:52.115Z,3.35
2022-12-28T23:09:54.041Z,2.70
2022-12-28T23:15:14.498Z,3.33
2022-12-28T23:20:35.828Z,2.80
2022-12-28T23:25:59.289Z,2.40
2022-12-28T23:31:01.391Z,2.28
2022-12-28T23:36:04.178Z,1.80
2022-12-28T23:41:24.976Z,2.22
2022-12-28T23:46:26.724Z,2.10
2022-12-28T23:51:28.426Z,2.20
2022-12-28T23:56:30.131Z,2.40
